Time;durP1;ratioP1;P1;durP2;ratioP2;P2;SDS_P1;SDS_P2;PMS_P1;PMS_P2;Temp;Humidity;BMP_temperature;BMP_pressure;BME280_temperature;BME280_humidity;BME280_pressure;Samples;Min_cycle;Max_cycle;Signal;HPM_P1;HPM_P2
2021/01/11 00:01:11;;;;;;;9.48;5.70;;;-10.50;66.80;;;;;;5162536;28;20046;-75
2021/01/11 00:03:42;;;;;;;9.52;5.22;;;-10.50;66.80;;;;;;5164022;28;20034;-74
2021/01/11 00:06:14;;;;;;;8.70;5.45;;;-10.60;67.10;;;;;;5163813;28;20061;-75
2021/01/11 00:08:45;;;;;;;9.93;5.47;;;-10.60;67.10;;;;;;5160241;28;20128;-74
2021/01/11 00:11:23;;;;;;;11.15;5.93;;;-10.60;66.90;;;;;;5162626;28;20137;-74
2021/01/11 00:13:54;;;;;;;16.35;7.80;;;-10.70;67.00;;;;;;5144492;28;20038;-75
2021/01/11 00:16:26;;;;;;;13.38;7.10;;;-10.70;66.10;;;;;;5143208;28;20472;-74
2021/01/11 00:18:57;;;;;;;13.73;7.03;;;-10.80;65.20;;;;;;5164021;28;20161;-74
2021/01/11 00:21:29;;;;;;;12.45;6.60;;;-10.80;65.20;;;;;;5163007;28;20761;-74
2021/01/11 00:24:00;;;;;;;9.55;5.75;;;-10.90;65.70;;;;;;5164005;28;20720;-75
2021/01/11 00:26:32;;;;;;;14.52;7.30;;;-10.90;66.60;;;;;;5161580;28;20049;-75
2021/01/11 00:29:03;;;;;;;10.52;6.10;;;-11.00;64.40;;;;;;5161328;28;20408;-75
2021/01/11 00:31:35;;;;;;;16.92;8.35;;;-11.10;65.20;;;;;;5165385;28;20612;-75
2021/01/11 00:34:07;;;;;;;11.52;6.25;;;-11.10;64.50;;;;;;5162536;28;20026;-74
2021/01/11 00:36:40;;;;;;;10.02;5.80;;;-11.10;65.00;;;;;;5163323;28;20054;-75
2021/01/11 00:39:11;;;;;;;9.98;6.13;;;-11.20;65.80;;;;;;5163208;28;20481;-74
2021/01/11 00:41:44;;;;;;;10.32;5.45;;;-11.10;66.00;;;;;;5150254;28;20052;-75
2021/01/11 00:44:15;;;;;;;9.40;5.28;;;-11.10;66.10;;;;;;5162210;28;20046;-74
2021/01/11 00:46:47;;;;;;;9.15;5.15;;;-11.10;66.30;;;;;;5161517;28;20540;-74
2021/01/11 00:49:18;;;;;;;10.20;5.75;;;-11.10;66.60;;;;;;5157335;28;20050;-75
2021/01/11 00:51:50;;;;;;;10.35;5.93;;;-11.00;66.20;;;;;;5161342;28;20068;-75
2021/01/11 00:54:23;;;;;;;10.32;5.75;;;-11.00;65.70;;;;;;5146689;28;20049;-75
2021/01/11 00:56:58;;;;;;;10.70;5.72;;;-11.00;65.70;;;;;;5159642;28;20802;-75
2021/01/11 00:59:49;;;;;;;9.48;5.50;;;-11.00;65.70;;;;;;5160422;28;20466;-76
2021/01/11 01:02:27;;;;;;;9.07;5.35;;;-11.10;66.20;;;;;;5158740;28;20038;-75
2021/01/11 01:04:58;;;;;;;10.43;5.20;;;-11.20;67.20;;;;;;5160361;28;20050;-76
2021/01/11 01:07:30;;;;;;;12.70;5.85;;;-11.10;67.00;;;;;;5163771;28;20504;-75
2021/01/11 01:10:02;;;;;;;24.40;9.40;;;-11.10;66.00;;;;;;5164360;28;20133;-76
2021/01/11 01:12:33;;;;;;;12.40;6.40;;;-11.10;65.60;;;;;;5141211;28;20054;-76
2021/01/11 01:15:07;;;;;;;15.30;6.15;;;-11.10;65.40;;;;;;5143709;28;20797;-75
2021/01/11 01:17:42;;;;;;;34.20;11.45;;;-11.20;65.40;;;;;;5147232;28;20045;-75
2021/01/11 01:20:17;;;;;;;27.40;8.73;;;-11.20;64.70;;;;;;5147244;28;20616;-75
2021/01/11 01:22:50;;;;;;;15.95;5.80;;;-11.20;64.60;;;;;;5146389;28;20046;-74
2021/01/11 01:25:22;;;;;;;10.07;5.28;;;-11.20;66.50;;;;;;5143138;28;20047;-74
2021/01/11 01:27:53;;;;;;;12.30;5.90;;;-11.30;66.90;;;;;;5160338;28;20712;-74
2021/01/11 01:30:25;;;;;;;8.93;4.80;;;-11.30;67.30;;;;;;5142195;28;20524;-74
2021/01/11 01:32:59;;;;;;;10.05;5.75;;;-11.30;66.70;;;;;;5145094;28;20050;-74
2021/01/11 01:35:31;;;;;;;9.70;5.70;;;-11.30;66.50;;;;;;5146364;28;20053;-74
2021/01/11 01:38:03;;;;;;;10.90;5.80;;;-11.30;66.60;;;;;;5146459;28;20039;-74
2021/01/11 01:40:34;;;;;;;29.30;9.93;;;-11.30;66.20;;;;;;5149567;28;20042;-75
2021/01/11 01:43:06;;;;;;;34.90;12.00;;;-11.30;65.30;;;;;;5146359;28;20038;-74
2021/01/11 01:45:38;;;;;;;37.28;11.10;;;-11.40;65.20;;;;;;5145642;28;20054;-74
2021/01/11 01:48:10;;;;;;;16.70;6.75;;;-11.40;65.30;;;;;;5141109;28;20090;-75
2021/01/11 01:50:42;;;;;;;13.98;6.20;;;-11.30;65.00;;;;;;5145042;28;20221;-76
2021/01/11 01:53:13;;;;;;;22.25;9.30;;;-11.40;64.20;;;;;;5148179;28;20039;-75
2021/01/11 01:55:45;;;;;;;15.95;7.60;;;-11.40;64.10;;;;;;5146810;28;20043;-74
2021/01/11 01:58:17;;;;;;;9.60;5.25;;;-11.40;64.70;;;;;;5150368;28;20045;-75
2021/01/11 02:00:48;;;;;;;10.48;5.88;;;-11.50;67.00;;;;;;5147919;28;20833;-77
2021/01/11 02:03:20;;;;;;;12.60;5.90;;;-11.60;65.10;;;;;;5148825;28;20108;-76
2021/01/11 02:05:52;;;;;;;14.68;8.02;;;-11.60;65.00;;;;;;5145116;28;20046;-74
2021/01/11 02:08:27;;;;;;;12.38;6.05;;;-11.60;65.10;;;;;;5146941;28;20050;-74
2021/01/11 02:11:23;;;;;;;11.48;5.95;;;-11.60;64.70;;;;;;5146559;28;21217;-74
2021/01/11 02:14:19;;;;;;;11.55;6.22;;;-11.60;64.80;;;;;;5146651;28;20090;-76
2021/01/11 02:17:06;;;;;;;10.55;6.03;;;-11.60;64.40;;;;;;5157624;28;20046;-75
2021/01/11 02:20:15;;;;;;;10.35;5.50;;;-11.60;64.10;;;;;;5142053;28;20039;-74
2021/01/11 02:22:59;;;;;;;11.85;6.30;;;-11.60;64.30;;;;;;5143946;28;20054;-74
2021/01/11 02:25:42;;;;;;;13.52;6.50;;;-11.60;64.70;;;;;;5145133;28;20050;-74
2021/01/11 02:28:40;;;;;;;9.52;4.95;;;-11.60;64.30;;;;;;5147197;28;20050;-73
2021/01/11 02:31:14;;;;;;;10.05;5.50;;;-11.60;64.70;;;;;;5141302;28;20090;-74
2021/01/11 02:33:46;;;;;;;9.63;5.20;;;-11.70;64.50;;;;;;5145229;28;20042;-74
2021/01/11 02:36:20;;;;;;;13.00;7.13;;;-11.70;64.30;;;;;;5145229;28;20128;-74
2021/01/11 02:38:53;;;;;;;12.85;7.10;;;-11.70;64.00;;;;;;5147392;28;20046;-74
2021/01/11 02:41:25;;;;;;;13.48;7.18;;;-11.70;64.10;;;;;;5143923;28;20050;-73
2021/01/11 02:43:56;;;;;;;9.98;5.72;;;-11.70;64.30;;;;;;5160737;28;20061;-73
2021/01/11 02:46:27;;;;;;;9.73;4.93;;;-11.70;64.60;;;;;;5143876;28;20057;-75
2021/01/11 02:49:07;;;;;;;8.23;4.65;;;-11.80;66.00;;;;;;5146533;28;21222;-77
2021/01/11 02:51:51;;;;;;;8.45;4.50;;;-11.80;65.60;;;;;;5144446;28;20596;-76
2021/01/11 02:54:27;;;;;;;8.10;4.07;;;-11.70;65.20;;;;;;5149780;28;20046;-76
2021/01/11 02:57:26;;;;;;;8.68;4.82;;;-11.70;64.80;;;;;;5144868;28;20057;-77
2021/01/11 03:00:01;;;;;;;10.93;4.88;;;-11.70;65.50;;;;;;5142469;28;20048;-77
2021/01/11 03:02:36;;;;;;;9.20;5.55;;;-11.60;64.80;;;;;;5148599;28;20747;-75
2021/01/11 03:05:09;;;;;;;10.30;5.25;;;-11.60;65.00;;;;;;5169392;28;20050;-76
2021/01/11 03:07:56;;;;;;;8.82;4.78;;;-11.60;64.80;;;;;;5166686;28;20039;-77
2021/01/11 03:10:28;;;;;;;10.88;5.93;;;-11.60;64.80;;;;;;5164334;28;20515;-77
2021/01/11 03:12:59;;;;;;;8.90;4.65;;;-11.70;64.80;;;;;;5165596;28;20566;-77
2021/01/11 03:15:31;;;;;;;9.63;4.93;;;-11.70;64.60;;;;;;5153353;28;20551;-77
2021/01/11 03:18:04;;;;;;;9.68;4.75;;;-11.70;65.80;;;;;;5154830;28;20038;-77
2021/01/11 03:20:35;;;;;;;8.82;5.10;;;-11.70;67.50;;;;;;5161150;28;20054;-77
2021/01/11 03:23:07;;;;;;;7.57;4.53;;;-11.80;67.90;;;;;;5167608;28;20044;-77
2021/01/11 03:25:42;;;;;;;8.20;4.97;;;-11.80;67.40;;;;;;5168159;28;20569;-75
2021/01/11 03:28:13;;;;;;;9.15;4.95;;;-11.80;67.40;;;;;;5172606;28;20229;-75
2021/01/11 03:30:45;;;;;;;9.00;4.68;;;-11.90;67.50;;;;;;5163811;28;20058;-76
2021/01/11 03:33:16;;;;;;;9.20;5.22;;;-11.90;67.50;;;;;;5167008;28;20042;-76
2021/01/11 03:35:48;;;;;;;8.82;5.22;;;-11.90;67.20;;;;;;5165046;28;20065;-75
2021/01/11 03:38:19;;;;;;;11.63;5.32;;;-12.00;66.90;;;;;;5166757;28;20046;-75
2021/01/11 03:40:59;;;;;;;9.80;5.45;;;-12.00;66.10;;;;;;5149274;28;20061;-74
2021/01/11 03:43:31;;;;;;;9.85;5.50;;;-12.10;66.10;;;;;;5164004;28;20750;-74
2021/01/11 03:46:03;;;;;;;8.50;4.55;;;-12.10;66.60;;;;;;5165473;28;20038;-74
2021/01/11 03:48:35;;;;;;;9.70;4.45;;;-12.10;66.80;;;;;;5151788;28;20046;-75
2021/01/11 03:51:06;;;;;;;7.82;4.25;;;-12.10;68.50;;;;;;5167916;28;20103;-74
2021/01/11 03:53:40;;;;;;;7.43;3.72;;;-12.00;68.10;;;;;;5165650;28;20088;-74
2021/01/11 03:56:12;;;;;;;8.43;4.45;;;-12.00;67.40;;;;;;5164415;28;20046;-74
2021/01/11 03:58:43;;;;;;;7.03;4.10;;;-11.90;67.30;;;;;;5167223;28;20038;-74
2021/01/11 04:01:14;;;;;;;7.05;3.85;;;-11.90;67.30;;;;;;5163745;28;20500;-74
2021/01/11 04:03:48;;;;;;;7.20;4.03;;;-11.90;67.10;;;;;;5162677;28;20108;-74
2021/01/11 04:06:21;;;;;;;7.70;4.18;;;-11.90;66.60;;;;;;5151533;28;20121;-75
2021/01/11 04:08:52;;;;;;;6.88;3.90;;;-11.90;66.60;;;;;;5166056;28;20515;-74
2021/01/11 04:11:23;;;;;;;7.65;3.83;;;-12.00;66.80;;;;;;5167574;28;20220;-73
2021/01/11 04:13:55;;;;;;;9.50;5.05;;;-12.00;66.90;;;;;;5165406;28;20070;-74
2021/01/11 04:16:26;;;;;;;9.52;4.40;;;-12.00;66.50;;;;;;5164004;28;20512;-74
2021/01/11 04:18:58;;;;;;;8.95;4.95;;;-12.00;66.20;;;;;;5149660;28;20034;-73
2021/01/11 04:21:29;;;;;;;9.77;5.35;;;-12.00;66.20;;;;;;5165003;28;20708;-73
2021/01/11 04:24:01;;;;;;;10.77;5.05;;;-11.90;65.70;;;;;;5161787;28;20054;-73
2021/01/11 04:26:32;;;;;;;8.48;4.10;;;-11.90;65.30;;;;;;5162902;28;20679;-75
2021/01/11 04:29:04;;;;;;;6.68;3.47;;;-11.90;65.90;;;;;;5154179;28;20049;-75
2021/01/11 04:31:35;;;;;;;6.40;3.45;;;-11.90;65.60;;;;;;5168114;28;20073;-75
2021/01/11 04:34:07;;;;;;;9.73;4.85;;;-12.00;65.60;;;;;;5167733;28;20292;-74
2021/01/11 04:36:41;;;;;;;7.32;4.03;;;-12.10;65.30;;;;;;5153128;28;20440;-75
2021/01/11 04:39:12;;;;;;;7.60;3.95;;;-12.10;65.10;;;;;;5164121;28;20910;-74
2021/01/11 04:41:45;;;;;;;7.88;3.90;;;-12.10;65.40;;;;;;5163055;28;20389;-75
2021/01/11 04:44:19;;;;;;;9.20;4.47;;;-12.10;65.40;;;;;;5167272;28;20046;-75
2021/01/11 04:46:51;;;;;;;6.90;3.78;;;-12.10;65.00;;;;;;5166296;28;20065;-75
2021/01/11 04:49:25;;;;;;;9.13;4.63;;;-12.10;65.00;;;;;;5164125;28;20046;-74
2021/01/11 04:51:57;;;;;;;8.10;4.10;;;-12.10;65.20;;;;;;5150146;28;20050;-74
2021/01/11 04:54:31;;;;;;;6.93;3.80;;;-12.10;65.10;;;;;;5169599;28;20033;-75
2021/01/11 04:57:03;;;;;;;9.60;4.88;;;-12.10;64.90;;;;;;5171656;28;20751;-76
2021/01/11 04:59:36;;;;;;;9.35;4.68;;;-12.00;64.30;;;;;;5168614;28;20049;-76
2021/01/11 05:02:19;;;;;;;7.35;4.10;;;-12.10;64.30;;;;;;5166932;28;20073;-76
2021/01/11 05:04:51;;;;;;;9.48;4.55;;;-12.10;63.70;;;;;;5168635;28;20048;-73
2021/01/11 05:07:23;;;;;;;9.75;4.95;;;-12.10;64.70;;;;;;5168069;28;20412;-74
2021/01/11 05:09:54;;;;;;;8.60;4.38;;;-12.20;63.80;;;;;;5167757;28;20054;-73
2021/01/11 05:12:27;;;;;;;9.63;4.65;;;-12.20;64.00;;;;;;5151328;28;20042;-73
2021/01/11 05:15:20;;;;;;;10.65;4.82;;;-12.30;63.30;;;;;;5166768;28;20061;-73
2021/01/11 05:17:52;;;;;;;10.27;5.35;;;-12.40;63.70;;;;;;5165418;28;20109;-74
2021/01/11 05:20:26;;;;;;;12.00;5.90;;;-12.50;64.20;;;;;;5168706;28;20135;-73
2021/01/11 05:22:59;;;;;;;9.68;4.97;;;-12.40;64.30;;;;;;5167456;28;20527;-74
2021/01/11 05:25:38;;;;;;;8.82;4.25;;;-12.40;63.80;;;;;;5170914;28;20447;-74
2021/01/11 05:28:15;;;;;;;8.50;4.65;;;-12.50;63.70;;;;;;5168934;28;20045;-74
2021/01/11 05:30:48;;;;;;;10.35;5.15;;;-12.60;64.00;;;;;;5163501;28;20057;-74
2021/01/11 05:33:20;;;;;;;13.52;6.43;;;-12.60;63.90;;;;;;5168739;28;20125;-74
2021/01/11 05:36:12;;;;;;;12.48;6.13;;;-12.60;63.90;;;;;;5166931;28;20507;-75
2021/01/11 05:38:47;;;;;;;7.25;4.25;;;-12.60;63.30;;;;;;5162473;28;20042;-73
2021/01/11 05:41:21;;;;;;;8.13;4.43;;;-12.60;64.10;;;;;;5158142;28;20044;-73
2021/01/11 05:44:12;;;;;;;10.15;4.47;;;-12.60;66.80;;;;;;5161709;28;20440;-73
2021/01/11 05:46:46;;;;;;;8.30;4.63;;;-12.60;66.70;;;;;;5167284;28;20086;-74
2021/01/11 05:49:18;;;;;;;9.80;5.10;;;-12.60;66.20;;;;;;5162669;28;20042;-74
2021/01/11 05:51:49;;;;;;;11.32;5.68;;;-12.60;65.30;;;;;;5163915;28;20061;-74
2021/01/11 05:54:25;;;;;;;11.10;5.05;;;-12.60;63.70;;;;;;5162589;28;20073;-74
2021/01/11 05:56:57;;;;;;;13.90;7.45;;;-12.60;63.60;;;;;;5163374;28;20053;-76
2021/01/11 05:59:29;;;;;;;14.57;6.72;;;-12.70;64.10;;;;;;5160264;28;20038;-75
2021/01/11 06:02:01;;;;;;;12.88;6.22;;;-12.70;64.20;;;;;;5160091;28;20048;-76
2021/01/11 06:04:33;;;;;;;10.30;5.68;;;-12.70;64.60;;;;;;5157535;28;20364;-76
2021/01/11 06:07:04;;;;;;;9.73;5.25;;;-12.80;64.70;;;;;;5153786;28;20053;-75
2021/01/11 06:09:38;;;;;;;12.75;6.25;;;-12.90;65.40;;;;;;5160913;28;20534;-76
2021/01/11 06:12:10;;;;;;;12.68;7.00;;;-12.80;65.40;;;;;;5163935;28;20085;-74
2021/01/11 06:14:42;;;;;;;15.18;7.32;;;-12.70;65.00;;;;;;5165590;28;20365;-76
2021/01/11 06:17:13;;;;;;;12.88;7.28;;;-12.60;64.60;;;;;;5161156;28;20062;-77
2021/01/11 06:19:45;;;;;;;11.63;5.18;;;-12.70;64.40;;;;;;5159658;28;20042;-76
2021/01/11 06:22:18;;;;;;;6.70;3.60;;;-12.70;64.60;;;;;;5159633;28;20526;-76
2021/01/11 06:24:50;;;;;;;11.05;5.65;;;-12.80;66.80;;;;;;5161503;28;20096;-75
2021/01/11 06:27:21;;;;;;;6.20;3.83;;;-12.80;65.80;;;;;;5157395;28;21226;-75
2021/01/11 06:29:54;;;;;;;7.03;3.60;;;-12.70;66.20;;;;;;5157219;28;20038;-73
2021/01/11 06:32:26;;;;;;;7.57;3.80;;;-12.70;65.90;;;;;;5156261;28;20045;-73
2021/01/11 06:34:57;;;;;;;7.07;4.03;;;-12.70;66.10;;;;;;5160251;28;20385;-74
2021/01/11 06:37:29;;;;;;;6.63;3.65;;;-12.70;66.40;;;;;;5161791;28;20558;-73
2021/01/11 06:40:01;;;;;;;7.95;3.90;;;-12.70;66.80;;;;;;5158866;28;20121;-73
2021/01/11 06:42:33;;;;;;;8.02;3.90;;;-12.70;67.10;;;;;;5160944;28;20104;-74
2021/01/11 06:45:08;;;;;;;6.85;3.80;;;-12.70;68.00;;;;;;5161710;28;20531;-74
2021/01/11 06:47:39;;;;;;;5.63;3.00;;;-12.70;68.50;;;;;;5164065;28;20049;-73
2021/01/11 06:50:11;;;;;;;9.45;5.40;;;-12.70;67.90;;;;;;5158367;28;20137;-73
2021/01/11 06:52:42;;;;;;;14.95;7.93;;;-12.70;67.40;;;;;;5157317;28;20633;-74
2021/01/11 06:55:17;;;;;;;12.00;6.60;;;-12.60;66.20;;;;;;5157117;28;20198;-75
2021/01/11 06:57:54;;;;;;;17.20;7.35;;;-12.60;65.80;;;;;;5157506;28;20092;-75
2021/01/11 07:00:30;;;;;;;19.13;8.80;;;-12.50;65.20;;;;;;5157416;28;20038;-74
2021/01/11 07:03:07;;;;;;;15.15;7.60;;;-12.60;64.20;;;;;;5157505;28;20046;-74
2021/01/11 07:05:39;;;;;;;21.92;8.55;;;-12.60;64.90;;;;;;5153908;28;20042;-74
2021/01/11 07:08:20;;;;;;;19.35;7.75;;;-12.70;65.40;;;;;;5156913;28;20060;-74
2021/01/11 07:11:03;;;;;;;18.08;8.32;;;-12.80;65.00;;;;;;5155475;28;20058;-74
2021/01/11 07:13:43;;;;;;;16.45;6.95;;;-12.70;64.90;;;;;;5156076;28;21952;-74
2021/01/11 07:16:16;;;;;;;17.10;7.47;;;-12.70;64.70;;;;;;5160032;28;20622;-73
2021/01/11 07:18:50;;;;;;;15.63;7.28;;;-12.70;64.80;;;;;;5162065;28;20385;-74
2021/01/11 07:21:25;;;;;;;10.27;5.72;;;-12.70;64.60;;;;;;5162880;28;20050;-74
2021/01/11 07:23:59;;;;;;;8.18;3.60;;;-12.70;64.90;;;;;;5159063;28;20053;-71
2021/01/11 07:26:35;;;;;;;7.65;3.60;;;-12.80;65.40;;;;;;5159591;28;20046;-72
2021/01/11 07:29:17;;;;;;;7.85;3.50;;;-12.80;66.50;;;;;;5160334;28;20145;-73
2021/01/11 07:31:49;;;;;;;8.05;4.00;;;-12.80;67.00;;;;;;5151332;28;20042;-72
2021/01/11 07:34:21;;;;;;;9.30;4.50;;;-12.80;67.60;;;;;;5130152;28;20743;-72
2021/01/11 07:36:55;;;;;;;7.30;4.05;;;-12.80;67.50;;;;;;5161039;28;20041;-73
2021/01/11 07:39:29;;;;;;;8.02;4.18;;;-12.80;67.90;;;;;;5162357;28;20088;-72
2021/01/11 07:42:02;;;;;;;8.73;3.95;;;-12.80;67.60;;;;;;5162705;28;20467;-74
2021/01/11 07:44:38;;;;;;;8.25;4.07;;;-12.80;67.30;;;;;;5159993;28;20484;-73
2021/01/11 07:47:15;;;;;;;27.65;15.40;;;-12.70;67.30;;;;;;5161929;28;20115;-73
2021/01/11 07:49:51;;;;;;;23.70;12.82;;;-12.60;66.40;;;;;;5161656;28;20500;-72
2021/01/11 07:52:25;;;;;;;17.58;9.40;;;-12.60;65.80;;;;;;5144649;28;20441;-74
2021/01/11 07:55:11;;;;;;;13.45;6.70;;;-12.50;65.50;;;;;;5157848;28;21008;-72
2021/01/11 07:57:43;;;;;;;15.07;6.45;;;-12.50;65.60;;;;;;5158707;28;20108;-73
2021/01/11 08:00:15;;;;;;;11.27;5.90;;;-12.40;65.30;;;;;;5160552;28;20041;-74
2021/01/11 08:02:46;;;;;;;11.18;5.10;;;-12.30;65.10;;;;;;5135553;28;20112;-74
2021/01/11 08:05:25;;;;;;;11.48;6.05;;;-12.30;64.70;;;;;;5160071;28;20046;-73
2021/01/11 08:08:05;;;;;;;9.00;4.93;;;-12.20;64.80;;;;;;5157316;28;20115;-73
2021/01/11 08:10:37;;;;;;;12.68;5.57;;;-12.10;64.70;;;;;;5161145;28;20324;-72
2021/01/11 08:13:09;;;;;;;11.48;5.22;;;-12.10;64.20;;;;;;5162409;28;20408;-72
2021/01/11 08:15:40;;;;;;;10.70;5.03;;;-12.10;64.00;;;;;;5160186;28;20046;-72
2021/01/11 08:18:12;;;;;;;14.32;5.70;;;-12.10;63.70;;;;;;5159738;28;20049;-73
2021/01/11 08:20:44;;;;;;;9.52;5.10;;;-12.10;64.30;;;;;;5159356;28;20058;-73
2021/01/11 08:23:15;;;;;;;15.95;7.18;;;-12.10;64.10;;;;;;5149766;28;20602;-74
2021/01/11 08:25:46;;;;;;;12.73;6.60;;;-12.00;64.50;;;;;;5160866;28;20475;-75
2021/01/11 08:28:18;;;;;;;12.75;6.47;;;-11.90;64.60;;;;;;5157559;28;20447;-75
2021/01/11 08:30:51;;;;;;;13.70;6.80;;;-12.00;64.50;;;;;;5155707;28;20046;-75
2021/01/11 08:33:22;;;;;;;18.20;6.80;;;-12.00;64.20;;;;;;5157456;28;20877;-75
2021/01/11 08:36:17;;;;;;;14.68;6.65;;;-12.20;64.30;;;;;;5158901;28;20428;-75
2021/01/11 08:39:00;;;;;;;14.05;6.65;;;-12.20;64.60;;;;;;5161008;28;20034;-75
2021/01/11 08:41:41;;;;;;;12.88;5.35;;;-12.40;65.30;;;;;;5159390;28;20054;-75
2021/01/11 08:44:26;;;;;;;12.02;6.10;;;-12.40;65.80;;;;;;5161039;28;20121;-73
2021/01/11 08:47:04;;;;;;;12.05;5.60;;;-12.30;66.80;;;;;;5158014;28;20039;-74
2021/01/11 08:50:04;;;;;;;12.68;6.13;;;-12.30;67.00;;;;;;5157366;28;20054;-72
2021/01/11 08:52:36;;;;;;;10.93;5.38;;;-12.30;66.90;;;;;;5158076;28;20057;-72
2021/01/11 08:55:18;;;;;;;15.43;6.03;;;-12.30;67.20;;;;;;5162631;28;20046;-73
2021/01/11 08:58:00;;;;;;;12.75;6.25;;;-12.20;66.60;;;;;;5138594;28;20575;-72
2021/01/11 09:00:32;;;;;;;14.38;6.93;;;-12.10;66.60;;;;;;5138171;28;20528;-74
2021/01/11 09:03:04;;;;;;;12.77;6.47;;;-12.00;66.80;;;;;;5140498;28;20430;-72
2021/01/11 09:05:37;;;;;;;13.15;6.88;;;-11.90;66.40;;;;;;5137613;28;20051;-72
2021/01/11 09:08:17;;;;;;;14.30;7.25;;;-11.70;66.20;;;;;;5142789;28;20554;-73
2021/01/11 09:10:49;;;;;;;13.13;6.65;;;-11.50;66.10;;;;;;5140965;28;20038;-74
2021/01/11 09:13:22;;;;;;;14.93;6.82;;;-11.40;66.10;;;;;;5134788;28;20384;-73
2021/01/11 09:15:54;;;;;;;11.48;6.38;;;-11.30;65.90;;;;;;5132371;28;20631;-72
2021/01/11 09:18:25;;;;;;;14.10;6.25;;;-11.20;65.60;;;;;;5133478;28;20567;-73
2021/01/11 09:20:57;;;;;;;12.45;5.78;;;-11.10;66.60;;;;;;5135496;28;20050;-72
2021/01/11 09:23:28;;;;;;;13.88;6.40;;;-10.90;66.90;;;;;;5136217;28;20046;-72
2021/01/11 09:26:00;;;;;;;11.60;6.13;;;-10.80;66.30;;;;;;5132371;28;20046;-71
2021/01/11 09:28:32;;;;;;;14.95;6.65;;;-10.70;65.70;;;;;;5131672;28;20540;-72
2021/01/11 09:31:03;;;;;;;9.90;5.50;;;-10.60;65.50;;;;;;5135554;28;20078;-72
2021/01/11 09:33:35;;;;;;;14.25;6.75;;;-10.40;66.10;;;;;;5136201;28;20039;-73
2021/01/11 09:36:06;;;;;;;20.77;8.95;;;-10.20;66.00;;;;;;5135935;28;20054;-74
2021/01/11 09:38:38;;;;;;;20.25;10.45;;;-10.00;65.40;;;;;;5136645;28;20351;-71
2021/01/11 09:41:12;;;;;;;15.73;9.15;;;-9.80;65.80;;;;;;5136167;28;20054;-71
2021/01/11 09:43:43;;;;;;;16.65;7.82;;;-9.60;65.60;;;;;;5137639;28;20508;-72
2021/01/11 09:46:15;;;;;;;16.55;7.78;;;-9.40;65.00;;;;;;5136530;28;20137;-73
2021/01/11 09:48:47;;;;;;;16.20;8.05;;;-9.30;65.30;;;;;;5135811;28;20040;-72
2021/01/11 09:51:18;;;;;;;15.55;7.03;;;-9.10;65.30;;;;;;5140888;28;20120;-74
2021/01/11 09:53:49;;;;;;;12.77;6.82;;;-8.90;65.00;;;;;;5140846;28;20579;-72
2021/01/11 09:56:21;;;;;;;12.27;6.78;;;-8.70;64.80;;;;;;5149547;28;20046;-74
2021/01/11 09:58:54;;;;;;;13.40;7.30;;;-8.50;64.30;;;;;;5143976;28;20539;-73
2021/01/11 10:01:38;;;;;;;14.45;8.15;;;-8.40;64.40;;;;;;5138930;28;20181;-76
2021/01/11 10:04:11;;;;;;;14.85;8.23;;;-8.20;64.40;;;;;;5141537;28;20046;-73
2021/01/11 10:06:47;;;;;;;13.23;6.95;;;-8.00;64.50;;;;;;5137141;28;20055;-73
2021/01/11 10:09:24;;;;;;;12.63;6.55;;;-7.80;64.40;;;;;;5137851;28;20050;-73
2021/01/11 10:11:57;;;;;;;15.32;7.40;;;-7.70;63.20;;;;;;5138115;28;20520;-73
2021/01/11 10:14:30;;;;;;;14.15;7.82;;;-7.50;64.00;;;;;;5138404;28;20035;-73
2021/01/11 10:17:01;;;;;;;12.60;7.10;;;-7.30;63.70;;;;;;5140515;28;20526;-74
2021/01/11 10:19:34;;;;;;;13.93;7.03;;;-7.20;63.60;;;;;;5134970;28;20046;-73
2021/01/11 10:22:05;;;;;;;14.43;8.18;;;-7.10;63.40;;;;;;5154751;28;20308;-73
2021/01/11 10:24:37;;;;;;;21.83;8.98;;;-7.00;62.40;;;;;;5139114;28;20990;-74
2021/01/11 10:27:09;;;;;;;18.30;10.23;;;-6.90;61.70;;;;;;5125867;28;20047;-73
2021/01/11 10:29:40;;;;;;;19.70;9.52;;;-6.70;61.70;;;;;;5151725;28;20047;-73
2021/01/11 10:32:11;;;;;;;22.90;10.07;;;-6.70;61.20;;;;;;5134783;28;20050;-73
2021/01/11 10:34:43;;;;;;;26.40;12.88;;;-6.50;61.00;;;;;;5134557;28;20770;-74
2021/01/11 10:37:14;;;;;;;25.88;11.63;;;-6.40;60.70;;;;;;5131550;28;20056;-73
2021/01/11 10:39:46;;;;;;;24.23;10.05;;;-6.30;60.60;;;;;;5147314;28;20038;-73
2021/01/11 10:42:17;;;;;;;20.95;10.30;;;-6.20;59.40;;;;;;5136472;28;20058;-73
2021/01/11 10:44:49;;;;;;;23.92;10.13;;;-6.10;59.50;;;;;;5138819;28;20042;-74
2021/01/11 10:47:20;;;;;;;20.92;11.18;;;-6.20;57.60;;;;;;5123650;28;20328;-73
2021/01/11 10:49:52;;;;;;;21.38;11.15;;;-6.10;59.00;;;;;;5136246;28;20046;-73
2021/01/11 10:52:23;;;;;;;19.55;10.48;;;-6.00;60.00;;;;;;5136348;28;20046;-73
2021/01/11 10:54:55;;;;;;;18.23;10.18;;;-5.90;58.50;;;;;;5136380;28;20043;-73
2021/01/11 10:57:27;;;;;;;14.63;9.63;;;-5.90;59.40;;;;;;5147531;28;20043;-74
2021/01/11 10:59:58;;;;;;;18.33;9.48;;;-5.90;59.50;;;;;;5135268;28;20673;-74
2021/01/11 11:02:30;;;;;;;22.55;10.43;;;-5.80;58.10;;;;;;5138321;28;20520;-73
2021/01/11 11:05:02;;;;;;;15.68;9.15;;;-5.90;59.20;;;;;;5140701;28;20504;-73
2021/01/11 11:07:35;;;;;;;13.50;8.32;;;-5.80;59.40;;;;;;5139691;28;20054;-73
2021/01/11 11:10:11;;;;;;;17.95;8.65;;;-5.80;59.00;;;;;;5136885;28;20074;-74
2021/01/11 11:12:43;;;;;;;15.98;8.68;;;-5.70;60.30;;;;;;5141307;28;20034;-74
2021/01/11 11:15:14;;;;;;;13.40;8.05;;;-5.60;59.30;;;;;;5137883;28;20047;-73
2021/01/11 11:17:46;;;;;;;16.17;9.02;;;-5.50;59.20;;;;;;5144949;28;20388;-74
2021/01/11 11:20:18;;;;;;;16.02;8.38;;;-5.50;59.50;;;;;;5137294;28;20052;-73
2021/01/11 11:22:53;;;;;;;16.15;8.40;;;-5.50;60.30;;;;;;5145812;28;20066;-74
2021/01/11 11:25:25;;;;;;;14.35;8.23;;;-5.40;59.20;;;;;;5137498;28;20057;-73
2021/01/11 11:27:56;;;;;;;16.77;9.02;;;-5.40;59.70;;;;;;5140571;28;20038;-73
2021/01/11 11:30:28;;;;;;;12.10;7.35;;;-5.30;58.90;;;;;;5152136;28;20046;-73
2021/01/11 11:33:00;;;;;;;14.23;8.20;;;-5.20;59.10;;;;;;5142889;28;20046;-73
2021/01/11 11:35:31;;;;;;;10.88;8.02;;;-5.00;60.10;;;;;;5138449;28;20045;-73
2021/01/11 11:38:03;;;;;;;11.68;8.45;;;-5.00;58.60;;;;;;5138564;28;20055;-74
2021/01/11 11:40:35;;;;;;;13.98;7.88;;;-4.80;59.10;;;;;;5139102;28;20130;-74
2021/01/11 11:43:16;;;;;;;10.38;7.68;;;-4.80;56.80;;;;;;5138315;28;20554;-74
2021/01/11 11:45:49;;;;;;;11.40;7.40;;;-4.80;57.90;;;;;;5138484;28;20051;-74
2021/01/11 11:48:21;;;;;;;11.18;7.45;;;-4.80;58.50;;;;;;5139283;28;20057;-74
2021/01/11 11:50:52;;;;;;;10.90;7.57;;;-4.60;59.40;;;;;;5139368;28;20096;-74
2021/01/11 11:53:24;;;;;;;10.55;7.57;;;-4.60;57.60;;;;;;5141386;28;20228;-75
2021/01/11 11:55:55;;;;;;;13.23;7.22;;;-4.40;59.40;;;;;;5155573;28;20054;-76
2021/01/11 11:58:27;;;;;;;9.38;6.95;;;-4.30;57.70;;;;;;5142782;28;20045;-73
2021/01/11 12:00:58;;;;;;;11.63;7.38;;;-4.20;58.60;;;;;;5142321;28;20212;-74
2021/01/11 12:03:30;;;;;;;11.18;7.75;;;-4.10;58.20;;;;;;5139477;28;20038;-74
2021/01/11 12:06:01;;;;;;;13.35;8.50;;;-4.00;58.20;;;;;;5153547;28;20177;-74
2021/01/11 12:08:33;;;;;;;11.43;7.90;;;-3.90;57.40;;;;;;5125649;28;20065;-76
2021/01/11 12:11:05;;;;;;;13.63;9.00;;;-3.80;57.70;;;;;;5137481;28;20078;-74
2021/01/11 12:13:36;;;;;;;15.40;9.20;;;-3.70;56.40;;;;;;5137804;28;20086;-74
2021/01/11 12:16:08;;;;;;;13.55;9.82;;;-3.70;56.00;;;;;;5133261;28;20599;-75
2021/01/11 12:18:40;;;;;;;23.00;12.60;;;-3.60;57.30;;;;;;5133383;28;20039;-76
2021/01/11 12:21:12;;;;;;;17.30;11.02;;;-3.60;56.90;;;;;;5135275;28;20374;-76
2021/01/11 12:23:43;;;;;;;20.67;11.38;;;-3.50;57.20;;;;;;5125499;28;20042;-75
2021/01/11 12:26:14;;;;;;;21.30;12.93;;;-3.50;56.70;;;;;;5133335;28;20569;-76
2021/01/11 12:28:46;;;;;;;19.90;11.30;;;-3.40;56.30;;;;;;5135696;28;20509;-75
2021/01/11 12:31:26;;;;;;;18.90;10.50;;;-3.40;56.40;;;;;;5136497;28;20070;-75
2021/01/11 12:33:58;;;;;;;;;;;-3.40;56.00;;;;;;5122422;28;20416;-73
2021/01/11 12:36:35;;;;;;;19.70;10.73;;;-3.30;57.20;;;;;;5142015;28;19921;-73
2021/01/11 12:39:09;;;;;;;16.58;10.27;;;-3.40;55.90;;;;;;5142393;28;20483;-73
2021/01/11 12:41:41;;;;;;;19.52;10.43;;;-3.40;56.20;;;;;;5142023;28;20433;-75
2021/01/11 12:44:12;;;;;;;15.05;10.35;;;-3.40;56.40;;;;;;5141269;28;20326;-73
2021/01/11 12:46:43;;;;;;;14.65;9.55;;;-3.50;57.00;;;;;;5141919;28;20433;-72
2021/01/11 12:49:15;;;;;;;16.13;9.82;;;-3.60;56.30;;;;;;5140321;28;20047;-74
2021/01/11 12:51:47;;;;;;;13.18;9.27;;;-3.80;57.30;;;;;;5143512;28;20138;-73
2021/01/11 12:54:19;;;;;;;20.33;10.73;;;-3.90;58.00;;;;;;5139071;28;20086;-74
2021/01/11 12:56:51;;;;;;;17.13;10.27;;;-4.00;58.10;;;;;;5143837;28;20543;-73
2021/01/11 12:59:23;;;;;;;16.33;10.02;;;-4.00;58.00;;;;;;5139680;28;20050;-74
2021/01/11 13:01:55;;;;;;;19.70;11.15;;;-4.10;58.20;;;;;;5141033;28;20073;-73
2021/01/11 13:04:28;;;;;;;15.02;9.80;;;-4.10;58.50;;;;;;5139812;28;20051;-73
2021/01/11 13:07:00;;;;;;;14.25;10.98;;;-4.20;58.80;;;;;;5137961;28;20140;-74